sensor_id;sensor_type;location;lat;lon;timestamp;pressure;altitude;pressure_sealevel;temperature;humidity
78825;BME280;68176;45.554;10.220;2023-05-07T00:44:51;99870.69;;;22.24;53.84
78825;BME280;68176;45.554;10.220;2023-05-07T00:58:05;99869.03;;;22.10;54.01
78825;BME280;68176;45.554;10.220;2023-05-07T01:00:31;99873.56;;;22.10;54.17
78825;BME280;68176;45.554;10.220;2023-05-07T01:06:28;99872.34;;;22.06;54.12
78825;BME280;68176;45.554;10.220;2023-05-07T04:29:38;99842.44;;;21.50;53.94
78825;BME280;68176;45.554;10.220;2023-05-07T04:32:09;99891.38;;;21.70;53.98
78825;BME280;68176;45.554;10.220;2023-05-07T04:34:41;99872.25;;;21.60;54.05
78825;BME280;68176;45.554;10.220;2023-05-07T04:37:06;99869.38;;;21.55;54.08
78825;BME280;68176;45.554;10.220;2023-05-07T04:39:32;99870.19;;;21.49;54.10
78825;BME280;68176;45.554;10.220;2023-05-07T04:49:19;99875.53;;;21.49;54.23
78825;BME280;68176;45.554;10.220;2023-05-07T04:51:47;99894.41;;;21.54;54.26
78825;BME280;68176;45.554;10.220;2023-05-07T04:54:13;99883.31;;;21.50;54.20
78825;BME280;68176;45.554;10.220;2023-05-07T04:57:04;99865.66;;;21.43;53.93
78825;BME280;68176;45.554;10.220;2023-05-07T04:59:39;99889.06;;;21.54;54.25
78825;BME280;68176;45.554;10.220;2023-05-07T05:02:13;99891.94;;;21.46;54.29
78825;BME280;68176;45.554;10.220;2023-05-07T05:04:38;99899.53;;;21.49;54.02
78825;BME280;68176;45.554;10.220;2023-05-07T05:07:04;99933.03;;;21.58;54.12
78825;BME280;68176;45.554;10.220;2023-05-07T05:09:37;99898.91;;;21.47;54.00
78825;BME280;68176;45.554;10.220;2023-05-07T05:12:06;99915.75;;;21.54;53.99
78825;BME280;68176;45.554;10.220;2023-05-07T05:14:34;99927.28;;;21.61;53.96
78825;BME280;68176;45.554;10.220;2023-05-07T05:17:02;99914.09;;;21.53;53.88
78825;BME280;68176;45.554;10.220;2023-05-07T05:19:35;99913.91;;;21.48;54.03
78825;BME280;68176;45.554;10.220;2023-05-07T05:22:02;99938.38;;;21.58;54.20
78825;BME280;68176;45.554;10.220;2023-05-07T05:24:33;99922.13;;;21.53;53.90
78825;BME280;68176;45.554;10.220;2023-05-07T05:27:05;99910.19;;;21.42;53.96
78825;BME280;68176;45.554;10.220;2023-05-07T05:29:38;99931.38;;;21.57;53.79
78825;BME280;68176;45.554;10.220;2023-05-07T05:32:06;99911.63;;;21.45;53.97
78825;BME280;68176;45.554;10.220;2023-05-07T05:34:32;99900.97;;;21.45;53.85
78825;BME280;68176;45.554;10.220;2023-05-07T05:37:05;99906.94;;;21.53;53.67
78825;BME280;68176;45.554;10.220;2023-05-07T05:39:35;99906.72;;;21.48;53.71
78825;BME280;68176;45.554;10.220;2023-05-07T05:42:35;99896.63;;;21.44;53.90
78825;BME280;68176;45.554;10.220;2023-05-07T05:45:04;99916.16;;;21.51;54.00
78825;BME280;68176;45.554;10.220;2023-05-07T05:47:32;99906.09;;;21.46;54.12
78825;BME280;68176;45.554;10.220;2023-05-07T05:49:57;99915.34;;;21.50;53.88
78825;BME280;68176;45.554;10.220;2023-05-07T05:52:28;99929.75;;;21.62;53.91
78825;BME280;68176;45.554;10.220;2023-05-07T05:54:54;99922.97;;;21.60;54.03
78825;BME280;68176;45.554;10.220;2023-05-07T05:57:34;99887.16;;;21.35;54.03
78825;BME280;68176;45.554;10.220;2023-05-07T06:00:13;99896.44;;;21.39;53.88
78825;BME280;68176;45.554;10.220;2023-05-07T06:02:38;99903.44;;;21.46;53.77
78825;BME280;68176;45.554;10.220;2023-05-07T06:05:04;99902.63;;;21.46;54.10
78825;BME280;68176;45.554;10.220;2023-05-07T06:07:32;99910.44;;;21.54;53.81
78825;BME280;68176;45.554;10.220;2023-05-07T06:13:44;99897.25;;;21.39;53.84
78825;BME280;68176;45.554;10.220;2023-05-07T06:19:35;99909.16;;;21.50;53.74
78825;BME280;68176;45.554;10.220;2023-05-07T06:22:00;99896.44;;;21.45;53.62
78825;BME280;68176;45.554;10.220;2023-05-07T06:24:27;99891.50;;;21.36;53.84
78825;BME280;68176;45.554;10.220;2023-05-07T06:26:55;99905.91;;;21.48;53.85
78825;BME280;68176;45.554;10.220;2023-05-07T06:29:26;99913.31;;;21.52;53.86
78825;BME280;68176;45.554;10.220;2023-05-07T06:31:55;99882.25;;;21.38;53.78
78825;BME280;68176;45.554;10.220;2023-05-07T06:37:06;99902.00;;;21.57;53.92
78825;BME280;68176;45.554;10.220;2023-05-07T06:39:32;99882.88;;;21.47;53.53
78825;BME280;68176;45.554;10.220;2023-05-07T06:42:00;99877.56;;;21.47;53.75
78825;BME280;68176;45.554;10.220;2023-05-07T06:44:30;99887.41;;;21.53;53.72
78825;BME280;68176;45.554;10.220;2023-05-07T06:47:00;99880.47;;;21.52;53.47
78825;BME280;68176;45.554;10.220;2023-05-07T06:49:31;99899.34;;;21.57;53.50
78825;BME280;68176;45.554;10.220;2023-05-07T06:52:08;99896.88;;;21.49;53.68
78825;BME280;68176;45.554;10.220;2023-05-07T06:54:42;99887.63;;;21.51;53.67
78825;BME280;68176;45.554;10.220;2023-05-07T06:57:10;99884.53;;;21.48;53.46
78825;BME280;68176;45.554;10.220;2023-05-07T06:59:44;99912.25;;;21.53;53.63
78825;BME280;68176;45.554;10.220;2023-05-07T07:02:17;99890.91;;;21.47;53.34
78825;BME280;68176;45.554;10.220;2023-05-07T07:04:42;99909.19;;;21.56;53.26
78825;BME280;68176;45.554;10.220;2023-05-07T07:07:15;99889.47;;;21.51;53.51
78825;BME280;68176;45.554;10.220;2023-05-07T07:09:41;99917.88;;;21.65;53.44
78825;BME280;68176;45.554;10.220;2023-05-07T07:12:11;99880.03;;;21.48;53.35
78825;BME280;68176;45.554;10.220;2023-05-07T07:14:43;99875.94;;;21.46;53.16
78825;BME280;68176;45.554;10.220;2023-05-07T07:17:28;99896.88;;;21.49;53.21
78825;BME280;68176;45.554;10.220;2023-05-07T07:20:05;99888.88;;;21.49;53.50
78825;BME280;68176;45.554;10.220;2023-05-07T07:22:37;99907.34;;;21.57;53.34
78825;BME280;68176;45.554;10.220;2023-05-07T07:25:12;99871.00;;;21.43;53.40
78825;BME280;68176;45.554;10.220;2023-05-07T07:27:45;99889.06;;;21.54;53.14
78825;BME280;68176;45.554;10.220;2023-05-07T07:30:31;99874.88;;;21.47;53.11
78825;BME280;68176;45.554;10.220;2023-05-07T07:33:07;99888.66;;;21.57;52.98
78825;BME280;68176;45.554;10.220;2023-05-07T07:35:48;99902.25;;;21.62;53.21
78825;BME280;68176;45.554;10.220;2023-05-07T07:41:02;99911.50;;;21.72;53.35
78825;BME280;68176;45.554;10.220;2023-05-07T07:43:44;99883.97;;;21.59;52.98
78825;BME280;68176;45.554;10.220;2023-05-07T07:46:18;99893.84;;;21.65;53.35
78825;BME280;68176;45.554;10.220;2023-05-07T08:11:12;99920.81;;;21.96;52.63
78825;BME280;68176;45.554;10.220;2023-05-07T08:13:38;99943.84;;;22.10;52.02
78825;BME280;68176;45.554;10.220;2023-05-07T08:16:06;99917.13;;;22.10;51.11
78825;BME280;68176;45.554;10.220;2023-05-07T08:18:36;99936.66;;;22.17;50.46
78825;BME280;68176;45.554;10.220;2023-05-07T08:21:06;99921.22;;;22.13;50.67
78825;BME280;68176;45.554;10.220;2023-05-07T08:23:35;99920.59;;;21.98;50.22
78825;BME280;68176;45.554;10.220;2023-05-07T08:26:08;99907.66;;;22.01;50.48
78825;BME280;68176;45.554;10.220;2023-05-07T08:28:36;99931.13;;;22.06;50.89
78825;BME280;68176;45.554;10.220;2023-05-07T08:31:05;99939.31;;;22.04;50.83
78825;BME280;68176;45.554;10.220;2023-05-07T08:33:36;99939.31;;;22.04;50.68
78825;BME280;68176;45.554;10.220;2023-05-07T08:36:06;99916.69;;;22.00;50.92
78825;BME280;68176;45.554;10.220;2023-05-07T08:38:36;99938.50;;;22.17;50.55
78825;BME280;68176;45.554;10.220;2023-05-07T08:41:06;99925.75;;;22.19;49.89
78825;BME280;68176;45.554;10.220;2023-05-07T08:43:36;99950.88;;;22.31;50.54
78825;BME280;68176;45.554;10.220;2023-05-07T08:46:08;99929.47;;;22.18;50.28
78825;BME280;68176;45.554;10.220;2023-05-07T08:48:36;99934.19;;;22.22;50.13
78825;BME280;68176;45.554;10.220;2023-05-07T16:41:48;99751.63;;;24.66;52.17
78825;BME280;68176;45.554;10.220;2023-05-07T16:44:15;99759.66;;;24.66;44.24
78825;BME280;68176;45.554;10.220;2023-05-07T16:46:43;99762.06;;;24.74;47.46
78825;BME280;68176;45.554;10.220;2023-05-07T16:49:12;99753.38;;;24.72;46.28
78825;BME280;68176;45.554;10.220;2023-05-07T16:51:42;99765.41;;;24.69;44.46
78825;BME280;68176;45.554;10.220;2023-05-07T16:54:12;99763.28;;;24.71;44.61
78825;BME280;68176;45.554;10.220;2023-05-07T16:56:42;99755.03;;;24.73;45.72
78825;BME280;68176;45.554;10.220;2023-05-07T16:59:12;99764.28;;;24.77;44.36
78825;BME280;68176;45.554;10.220;2023-05-07T17:01:42;99759.38;;;24.74;44.58
78825;BME280;68176;45.554;10.220;2023-05-07T17:04:12;99758.47;;;24.80;44.44
78825;BME280;68176;45.554;10.220;2023-05-07T17:06:42;99765.03;;;24.84;43.47
78825;BME280;68176;45.554;10.220;2023-05-07T17:09:12;99764.22;;;24.83;44.32
78825;BME280;68176;45.554;10.220;2023-05-07T17:11:42;99774.84;;;24.90;44.38
78825;BME280;68176;45.554;10.220;2023-05-07T17:14:12;99772.63;;;24.87;43.78
78825;BME280;68176;45.554;10.220;2023-05-07T17:16:42;99770.22;;;24.79;43.64
78825;BME280;68176;45.554;10.220;2023-05-07T17:19:12;99760.84;;;24.70;43.82
78825;BME280;68176;45.554;10.220;2023-05-07T17:21:42;99765.91;;;24.78;42.94
78825;BME280;68176;45.554;10.220;2023-05-07T17:24:12;99768.13;;;24.81;43.62
78825;BME280;68176;45.554;10.220;2023-05-07T17:26:42;99765.69;;;24.79;42.93
78825;BME280;68176;45.554;10.220;2023-05-07T17:29:12;99768.00;;;24.76;43.68
78825;BME280;68176;45.554;10.220;2023-05-07T17:31:42;99763.66;;;24.75;43.78
78825;BME280;68176;45.554;10.220;2023-05-07T17:34:13;99767.75;;;24.77;43.90
78825;BME280;68176;45.554;10.220;2023-05-07T17:36:42;99769.19;;;24.80;44.29
78825;BME280;68176;45.554;10.220;2023-05-07T17:39:12;99749.09;;;24.71;44.14
78825;BME280;68176;45.554;10.220;2023-05-07T17:41:42;99776.63;;;24.78;44.41
78825;BME280;68176;45.554;10.220;2023-05-07T17:44:12;99777.69;;;24.77;44.20
78825;BME280;68176;45.554;10.220;2023-05-07T17:46:42;99776.13;;;24.69;44.42
78825;BME280;68176;45.554;10.220;2023-05-07T17:49:14;99780.22;;;24.72;44.27
78825;BME280;68176;45.554;10.220;2023-05-07T17:51:42;99775.63;;;24.61;44.32
78825;BME280;68176;45.554;10.220;2023-05-07T17:54:12;99775.75;;;24.66;44.07
78825;BME280;68176;45.554;10.220;2023-05-07T17:56:43;99779.25;;;24.66;43.74
78825;BME280;68176;45.554;10.220;2023-05-07T17:59:12;99781.13;;;24.66;44.24
78825;BME280;68176;45.554;10.220;2023-05-07T18:01:42;99782.84;;;24.60;44.46
78825;BME280;68176;45.554;10.220;2023-05-07T18:04:12;99776.72;;;24.53;44.34
78825;BME280;68176;45.554;10.220;2023-05-07T18:06:42;99787.00;;;24.56;44.11
78825;BME280;68176;45.554;10.220;2023-05-07T18:09:12;99807.94;;;24.66;43.35
78825;BME280;68176;45.554;10.220;2023-05-07T18:11:43;99798.69;;;24.62;44.09
78825;BME280;68176;45.554;10.220;2023-05-07T18:14:24;99801.38;;;24.62;44.19
78825;BME280;68176;45.554;10.220;2023-05-07T18:17:05;99803.34;;;24.55;44.58
78825;BME280;68176;45.554;10.220;2023-05-07T18:22:58;99795.75;;;24.52;44.88
78825;BME280;68176;45.554;10.220;2023-05-07T18:25:26;99792.00;;;24.53;44.84
78825;BME280;68176;45.554;10.220;2023-05-07T18:52:11;99797.94;;;24.36;46.73
78825;BME280;68176;45.554;10.220;2023-05-07T18:55:03;99762.31;;;24.11;46.80
78825;BME280;68176;45.554;10.220;2023-05-07T18:58:01;99776.66;;;24.23;47.25
78825;BME280;68176;45.554;10.220;2023-05-07T19:00:30;99770.09;;;24.19;47.54
78825;BME280;68176;45.554;10.220;2023-05-07T19:02:55;99769.34;;;24.12;47.86
78825;BME280;68176;45.554;10.220;2023-05-07T19:05:24;99774.25;;;24.15;47.69
78825;BME280;68176;45.554;10.220;2023-05-07T19:07:54;99777.56;;;24.11;47.58
78825;BME280;68176;45.554;10.220;2023-05-07T19:10:24;99789.44;;;24.21;47.60
78825;BME280;68176;45.554;10.220;2023-05-07T19:12:54;99785.59;;;24.17;48.02
78825;BME280;68176;45.554;10.220;2023-05-07T19:15:24;99770.19;;;24.06;47.96
78825;BME280;68176;45.554;10.220;2023-05-07T19:17:54;99802.69;;;24.16;48.36
78825;BME280;68176;45.554;10.220;2023-05-07T19:20:23;99782.19;;;24.04;48.32
78825;BME280;68176;45.554;10.220;2023-05-07T19:22:54;99791.03;;;24.04;48.62
78825;BME280;68176;45.554;10.220;2023-05-07T19:25:24;99788.78;;;24.01;48.52
78825;BME280;68176;45.554;10.220;2023-05-07T19:27:54;99797.44;;;24.03;48.86
78825;BME280;68176;45.554;10.220;2023-05-07T19:30:24;99806.06;;;24.05;48.45
78825;BME280;68176;45.554;10.220;2023-05-07T19:32:54;99773.81;;;23.94;48.92
78825;BME280;68176;45.554;10.220;2023-05-07T19:35:24;99801.06;;;24.09;49.09
78825;BME280;68176;45.554;10.220;2023-05-07T19:37:54;99793.09;;;24.02;48.95
78825;BME280;68176;45.554;10.220;2023-05-07T19:40:24;99792.13;;;23.97;49.19
78825;BME280;68176;45.554;10.220;2023-05-07T19:42:54;99806.34;;;23.97;49.10
78825;BME280;68176;45.554;10.220;2023-05-07T19:45:24;99791.97;;;23.92;49.18
78825;BME280;68176;45.554;10.220;2023-05-07T19:47:57;99810.72;;;23.92;49.37
78825;BME280;68176;45.554;10.220;2023-05-07T19:50:24;99800.50;;;23.82;49.26
78825;BME280;68176;45.554;10.220;2023-05-07T19:52:54;99835.03;;;23.90;49.42
78825;BME280;68176;45.554;10.220;2023-05-07T19:55:24;99866.75;;;23.93;49.56
78825;BME280;68176;45.554;10.220;2023-05-07T19:57:57;99868.22;;;23.89;49.79
78825;BME280;68176;45.554;10.220;2023-05-07T20:00:24;99891.53;;;23.88;49.51
78825;BME280;68176;45.554;10.220;2023-05-07T20:02:55;99912.97;;;23.88;49.66
78825;BME280;68176;45.554;10.220;2023-05-07T20:06:12;99892.88;;;23.73;49.73
78825;BME280;68176;45.554;10.220;2023-05-07T20:12:08;99916.78;;;23.68;50.21
78825;BME280;68176;45.554;10.220;2023-05-07T20:14:58;99955.53;;;23.65;50.03
78825;BME280;68176;45.554;10.220;2023-05-07T20:17:24;100006.56;;;23.77;50.03
78825;BME280;68176;45.554;10.220;2023-05-07T21:44:40;99969.31;;;22.98;51.78
78825;BME280;68176;45.554;10.220;2023-05-07T22:03:53;99990.94;;;22.97;52.28
78825;BME280;68176;45.554;10.220;2023-05-07T22:06:43;99993.81;;;22.95;52.19
78825;BME280;68176;45.554;10.220;2023-05-07T22:12:20;99973.06;;;22.84;52.30
78825;BME280;68176;45.554;10.220;2023-05-07T22:15:18;99975.09;;;22.82;52.25
78825;BME280;68176;45.554;10.220;2023-05-07T22:23:12;99986.44;;;22.91;52.49
78825;BME280;68176;45.554;10.220;2023-05-07T22:26:07;99989.69;;;22.99;52.57
78825;BME280;68176;45.554;10.220;2023-05-07T22:36:30;100009.25;;;22.93;52.69
78825;BME280;68176;45.554;10.220;2023-05-07T22:38:58;99970.59;;;22.69;52.60
78825;BME280;68176;45.554;10.220;2023-05-07T22:42:22;99978.00;;;22.67;52.87
78825;BME280;68176;45.554;10.220;2023-05-07T22:50:40;99987.88;;;22.67;52.68
78825;BME280;68176;45.554;10.220;2023-05-07T22:53:08;99993.59;;;22.64;52.90
78825;BME280;68176;45.554;10.220;2023-05-07T22:56:25;100016.47;;;22.73;52.65
